createdAt,value
2022-08-20T06:44:52.896Z,17.50
2022-08-20T06:47:30.758Z,17.80
2022-08-20T06:50:10.619Z,17.35
2022-08-20T06:52:51.914Z,18.67
2022-08-20T06:55:30.957Z,18.45
2022-08-20T06:58:22.236Z,18.63
2022-08-20T07:01:14.125Z,19.40
2022-08-20T07:06:33.297Z,18.50
2022-08-20T07:09:10.697Z,18.63
2022-08-20T07:11:48.796Z,20.27
2022-08-20T07:14:27.473Z,19.58
2022-08-20T07:17:11.374Z,20.33
2022-08-20T07:19:50.147Z,20.40
2022-08-20T07:22:27.597Z,19.95
2022-08-20T07:25:05.040Z,17.70
2022-08-20T07:27:42.467Z,17.60
2022-08-20T07:30:56.041Z,15.65
2022-08-20T07:33:36.168Z,14.57
2022-08-20T07:36:15.228Z,13.95
2022-08-20T07:38:53.076Z,13.10
2022-08-20T07:41:30.782Z,13.10
2022-08-20T07:44:08.104Z,11.88
2022-08-20T07:46:45.337Z,10.55
2022-08-20T07:49:24.835Z,10.27
2022-08-20T07:52:02.056Z,10.13
2022-08-20T07:54:39.766Z,9.35
2022-08-20T07:57:17.924Z,9.35
2022-08-20T07:59:54.861Z,9.13
2022-08-20T08:02:32.363Z,7.78
2022-08-20T08:05:13.609Z,8.02
2022-08-20T08:07:51.137Z,8.32
2022-08-20T08:10:28.676Z,8.20
2022-08-20T08:13:12.556Z,7.22
2022-08-20T08:15:53.756Z,7.30
2022-08-20T08:18:41.197Z,7.20
2022-08-20T08:21:21.345Z,8.25
2022-08-20T08:23:58.776Z,7.57
2022-08-20T08:26:35.775Z,7.82
2022-08-20T08:29:12.995Z,8.23
2022-08-20T08:31:50.043Z,8.15
2022-08-20T08:34:27.526Z,8.23
2022-08-20T08:37:08.056Z,8.23
2022-08-20T08:39:45.501Z,8.32
2022-08-20T08:42:32.087Z,8.55
2022-08-20T08:45:11.565Z,8.32
2022-08-20T08:47:49.105Z,9.07
2022-08-20T08:50:53.561Z,8.05
2022-08-20T08:53:39.806Z,8.27
2022-08-20T08:56:18.634Z,8.38
2022-08-20T08:58:55.934Z,9.07
2022-08-20T09:01:54.581Z,10.30
2022-08-20T09:04:37.645Z,10.25
2022-08-20T09:07:19.643Z,9.10
2022-08-20T09:09:59.324Z,9.20
2022-08-20T09:12:36.481Z,8.60
2022-08-20T09:15:14.199Z,9.13
2022-08-20T09:17:53.162Z,9.48
2022-08-20T09:20:30.504Z,9.23
2022-08-20T09:23:09.957Z,8.15
2022-08-20T09:25:49.747Z,8.63
2022-08-20T09:28:32.515Z,8.93
2022-08-20T09:31:12.298Z,7.80
2022-08-20T09:33:50.412Z,8.13
2022-08-20T09:36:30.709Z,8.15
2022-08-20T09:39:10.350Z,7.35
2022-08-20T09:41:49.786Z,7.68
2022-08-20T09:44:27.179Z,7.10
2022-08-20T09:47:04.039Z,6.90
2022-08-20T09:49:41.539Z,7.57
2022-08-20T09:52:26.619Z,7.10
2022-08-20T09:55:07.230Z,7.40
2022-08-20T09:57:46.788Z,7.47
2022-08-20T10:00:24.831Z,7.15
2022-08-20T10:03:03.898Z,7.47
2022-08-20T10:05:41.179Z,7.47
2022-08-20T10:08:18.649Z,7.75
2022-08-20T10:10:56.012Z,7.90
2022-08-20T10:13:35.418Z,7.20
2022-08-20T10:16:12.750Z,7.68
2022-08-20T10:18:49.648Z,7.80
2022-08-20T10:21:26.862Z,8.30
2022-08-20T10:24:03.910Z,7.20
2022-08-20T10:26:42.651Z,7.97
2022-08-20T10:29:22.130Z,8.43
2022-08-20T10:32:00.134Z,7.88
2022-08-20T10:34:37.207Z,8.23
2022-08-20T10:37:17.441Z,7.85
2022-08-20T10:39:54.637Z,8.20
2022-08-20T10:42:31.849Z,8.13
2022-08-20T10:45:13.421Z,7.57
2022-08-20T10:47:50.792Z,7.90
2022-08-20T10:50:30.261Z,7.55
2022-08-20T10:53:08.135Z,7.78
2022-08-20T10:55:44.945Z,7.28
2022-08-20T10:58:23.994Z,7.80
2022-08-20T11:01:03.684Z,7.45
2022-08-20T11:03:40.982Z,7.32
2022-08-20T11:06:17.991Z,7.35
2022-08-20T11:08:56.929Z,7.85
2022-08-20T11:11:34.104Z,6.82
2022-08-20T11:14:11.430Z,8.00
2022-08-20T11:16:51.060Z,8.70
2022-08-20T11:19:28.200Z,8.63
2022-08-20T11:22:05.130Z,7.90
2022-08-20T11:24:42.588Z,7.88
2022-08-20T11:27:28.899Z,8.43
2022-08-20T11:30:06.222Z,8.05
2022-08-20T11:32:45.593Z,8.20
2022-08-20T11:35:42.203Z,7.78
2022-08-20T11:38:21.782Z,7.63
2022-08-20T11:40:59.022Z,7.93
2022-08-20T11:43:35.824Z,9.10
2022-08-20T11:46:13.243Z,8.18
2022-08-20T11:48:52.790Z,8.20
2022-08-20T11:51:30.034Z,7.70
2022-08-20T11:54:11.654Z,8.27
2022-08-20T11:56:49.875Z,8.48
2022-08-20T11:59:26.895Z,7.68
2022-08-20T12:02:06.080Z,8.45
2022-08-20T12:04:47.894Z,9.18
2022-08-20T12:07:27.516Z,9.15
2022-08-20T12:10:04.465Z,8.88
2022-08-20T12:12:42.204Z,9.48
2022-08-20T12:15:19.323Z,9.00
2022-08-20T12:17:56.634Z,9.80
2022-08-20T12:20:36.193Z,11.25
2022-08-20T12:23:13.325Z,13.30
2022-08-20T12:25:50.119Z,12.55
2022-08-20T12:28:27.556Z,10.98
2022-08-20T12:31:04.495Z,11.38
2022-08-20T12:33:41.758Z,13.30
2022-08-20T12:36:21.395Z,14.13
2022-08-20T12:38:58.596Z,14.38
2022-08-20T12:41:35.526Z,14.75
2022-08-20T12:44:13.327Z,14.68
2022-08-20T12:46:50.482Z,14.40
2022-08-20T12:49:27.622Z,15.35
2022-08-20T12:52:08.315Z,15.07
2022-08-20T12:54:45.981Z,15.10
2022-08-20T12:57:30.454Z,13.90
2022-08-20T13:00:14.971Z,14.52
2022-08-20T13:02:53.239Z,15.13
2022-08-20T13:05:31.821Z,16.23
2022-08-20T13:08:14.835Z,16.70
2022-08-20T13:10:52.231Z,15.70
2022-08-20T13:13:29.178Z,15.93
2022-08-20T13:16:06.726Z,16.77
2022-08-20T13:18:43.638Z,16.63
2022-08-20T13:21:23.910Z,17.15
2022-08-20T13:24:03.910Z,18.25
2022-08-20T13:26:41.009Z,18.75
2022-08-20T13:29:19.690Z,18.05
2022-08-20T13:31:56.892Z,18.10
2022-08-20T13:34:33.850Z,19.05
2022-08-20T13:37:16.910Z,20.50
2022-08-20T13:39:57.023Z,20.35
2022-08-20T13:42:34.298Z,21.83
2022-08-20T13:45:12.978Z,21.95
2022-08-20T13:47:50.364Z,21.83
2022-08-20T13:50:29.138Z,21.00
2022-08-20T13:53:07.590Z,19.98
2022-08-20T13:55:47.593Z,21.15
2022-08-20T13:58:25.611Z,21.52
2022-08-20T14:01:02.678Z,19.88
2022-08-20T14:03:39.843Z,18.45
2022-08-20T14:06:19.550Z,18.60
2022-08-20T14:08:56.719Z,18.30
2022-08-20T14:11:36.474Z,15.80
2022-08-20T14:14:13.592Z,17.63
2022-08-20T14:16:50.452Z,15.55
2022-08-20T14:19:27.691Z,16.80
2022-08-20T14:22:04.548Z,17.88
2022-08-20T14:24:41.722Z,16.65
2022-08-20T14:27:29.066Z,18.27
2022-08-20T14:30:11.923Z,18.70
2022-08-20T14:32:48.772Z,19.23
2022-08-20T14:35:26.451Z,19.15
2022-08-20T14:38:05.326Z,19.73
2022-08-20T14:40:42.864Z,20.38
2022-08-20T14:43:22.628Z,19.27
2022-08-20T14:45:59.663Z,19.35
2022-08-20T14:48:36.410Z,19.65
2022-08-20T14:51:13.529Z,18.67
2022-08-20T14:53:51.449Z,18.10
2022-08-20T14:56:28.540Z,18.75
2022-08-20T14:59:07.861Z,18.15
2022-08-20T15:01:45.018Z,17.88
2022-08-20T15:04:23.597Z,18.15
2022-08-20T15:07:08.178Z,16.50
2022-08-20T15:09:48.890Z,16.90
2022-08-20T15:12:28.343Z,17.20
2022-08-20T15:15:15.534Z,16.73
2022-08-20T15:17:56.959Z,15.82
2022-08-20T15:20:37.228Z,14.93
2022-08-20T15:23:15.927Z,14.80
2022-08-20T15:25:52.972Z,14.10
2022-08-20T15:28:30.253Z,14.85
2022-08-20T15:31:14.256Z,15.52
2022-08-20T15:33:51.613Z,15.63
2022-08-20T15:36:28.702Z,14.68
2022-08-20T15:39:05.952Z,15.15
2022-08-20T15:41:42.842Z,14.85
2022-08-20T15:44:20.011Z,15.45
2022-08-20T15:46:59.350Z,16.10
2022-08-20T15:49:36.527Z,15.32
2022-08-20T15:52:13.837Z,14.40
2022-08-20T15:54:54.989Z,14.18
2022-08-20T15:57:50.453Z,13.43
2022-08-20T16:00:32.633Z,14.32
2022-08-20T16:03:57.369Z,13.52
2022-08-20T16:06:37.009Z,15.30
2022-08-20T16:09:41.586Z,13.50
2022-08-20T16:12:27.828Z,13.80
2022-08-20T16:15:12.015Z,13.57
2022-08-20T16:17:55.521Z,12.43
2022-08-20T16:20:41.688Z,13.87
2022-08-20T16:23:24.737Z,13.82
2022-08-20T16:26:15.887Z,13.50
2022-08-20T16:29:11.408Z,13.93
2022-08-20T16:31:53.047Z,13.07
2022-08-20T16:34:39.770Z,13.85
2022-08-20T16:37:28.517Z,14.15
2022-08-20T16:40:25.447Z,14.48
2022-08-20T16:43:08.557Z,14.57
2022-08-20T16:45:55.676Z,14.35
2022-08-20T16:48:42.762Z,15.20
2022-08-20T16:51:25.753Z,15.60
2022-08-20T16:54:05.816Z,15.05
2022-08-20T16:56:46.483Z,14.57
2022-08-20T16:59:27.134Z,14.55
2022-08-20T17:02:10.516Z,13.95
2022-08-20T17:04:59.348Z,14.57
2022-08-20T17:07:51.408Z,15.13
2022-08-20T17:10:37.852Z,14.35
2022-08-20T17:13:28.334Z,13.90
2022-08-20T17:16:11.347Z,14.98
2022-08-20T17:18:51.584Z,13.93
2022-08-20T17:21:33.859Z,13.60
2022-08-20T17:27:02.923Z,13.10
2022-08-20T17:29:55.511Z,12.75
2022-08-20T17:32:33.298Z,13.50
2022-08-20T17:35:12.293Z,14.02
2022-08-20T17:37:55.667Z,13.40
2022-08-20T17:40:41.815Z,14.90
2022-08-20T17:43:33.257Z,14.52
2022-08-20T17:46:18.824Z,15.77
2022-08-20T17:48:57.936Z,16.23
2022-08-20T17:51:50.278Z,17.17
2022-08-20T17:54:33.150Z,17.43
2022-08-20T17:57:15.561Z,18.15
2022-08-20T18:00:02.806Z,18.83
2022-08-20T18:02:42.181Z,18.35
2022-08-20T18:05:23.381Z,19.30
2022-08-20T18:08:32.256Z,19.85
2022-08-20T18:11:21.877Z,20.58
2022-08-20T18:14:41.972Z,21.05
2022-08-20T18:18:03.287Z,20.70
2022-08-20T18:21:23.884Z,19.88
2022-08-20T18:24:08.974Z,20.58
2022-08-20T18:26:52.484Z,19.23
2022-08-20T18:29:36.573Z,20.77
2022-08-20T18:32:37.788Z,26.33
2022-08-20T18:35:22.105Z,21.52
2022-08-20T18:37:59.295Z,20.30
2022-08-20T18:40:39.358Z,19.50
2022-08-20T18:43:30.738Z,20.10
2022-08-20T18:46:22.427Z,19.52
2022-08-20T18:49:07.015Z,18.80
2022-08-20T18:51:52.932Z,19.33
2022-08-20T18:54:34.164Z,19.38
2022-08-20T18:57:24.394Z,18.85
